Jamboree, Kentucky
Current Conditions -  °F | °C
As of 10:15 AM on Saturday 25 Oct 2014 (Local Time) from KPBX Reporting Station
Scattered Clouds Scattered Clouds  
Wind Chill: 42°   Ceiling: Unl
Heat Index: 45°   Visibility: 10mi
Dew Point: 43°   Wind: 5mph
Humidity: 93%   Direction: 160°SSE
Pressure: 30.07"   Gusts: NA
Location:  37.4798°N, 82.1599°W
Report Text: KPBX 251415Z AUTO 16004KT 10SM SCT001 07/06 A3007 RMK AO2 T00710060
Loading
Personal Weather Stations






























Interactive Weather Map
Tropical Storm Tracking
New forecast layout! Learn more

10-Day Weather Forecast

Advertisements
Track Severe Weather on mobile